»·PEaware :: N412ZS KLAS-KPHX

N412ZS :: KLAS-KPHX

FLIGHT INFORMATION

Flight Status: Arrived
Operator: Privately registered:
United States
More flights under this callsign
Pilot: Zach S. (18794)
Aircraft: Unknown
(GLF6)
More flights by this aircraft type
Origin: KLAS McCarran Intl
United States
Destination: KPHX Phoenix Sky Harbor Intl
United States
More flights between these airports :: More routes between these airports
Route: +COWBY8 COWBY TENTS BRUSR1
File this flight plan on PilotEdge
Remarks:
Altitude:
(Current/Filed)
37,000ft
Speed:
(Current/Filed)
0kts
Departed: 19-Apr-18 06:35 PM
Arrived: 19-Apr-18 07:42 PM
Distance/Time
Traveled:
222nm/1:07
Distance/Time
To Go:
Arrived

Flight Plot

Page will automatically refresh every two minutes.

Flight plan parsing failed; only flown route is shown


Map Options




Map Legend


Flown Route
Filed Route
Departure Airport
Arrival Airport
Navaid (VOR, NDB)
Fix

Horizontal Profiles

Position Reports

Time Latitude Longitude Heading Altitude Ground
Speed
19-Apr-18 18:19 36.080623 -115.172225 89 2152ft 0kts
19-Apr-18 18:20 36.080623 -115.172225 89 2152ft 0kts
19-Apr-18 18:21 36.080623 -115.172225 89 2152ft 0kts
19-Apr-18 18:22 36.080622 -115.172225 89 2152ft 0kts
19-Apr-18 18:23 36.080623 -115.172225 89 2152ft 0kts
19-Apr-18 18:24 36.080623 -115.172225 89 2152ft 0kts
19-Apr-18 18:25 36.080623 -115.172225 89 2152ft 0kts
19-Apr-18 18:26 36.080623 -115.172225 89 2152ft 0kts
19-Apr-18 18:27 36.080623 -115.172225 89 2152ft 0kts
19-Apr-18 18:28 36.081497 -115.170221 91 2152ft 12kts
19-Apr-18 18:29 36.084006 -115.166900 24 2152ft 21kts
19-Apr-18 18:30 36.091481 -115.162627 25 2152ft 25kts
19-Apr-18 18:31 36.096962 -115.159482 23 2152ft 15kts
19-Apr-18 18:32 36.099100 -115.158262 24 2152ft 9kts
19-Apr-18 18:33 36.099778 -115.157657 68 2152ft 2kts
19-Apr-18 18:34 36.087292 -115.163092 203 2295ft 172kts
19-Apr-18 18:35 36.040944 -115.189588 207 4965ft 197kts
19-Apr-18 18:36 36.001448 -115.231150 240 5019ft 195kts
19-Apr-18 18:37 35.972104 -115.287359 206 5459ft 221kts
19-Apr-18 18:38 35.903827 -115.268800 166 8830ft 331kts
19-Apr-18 18:39 35.852806 -115.200724 106 9466ft 313kts
19-Apr-18 18:40 35.828369 -115.093921 105 11003ft 331kts
19-Apr-18 18:41 35.835187 -114.982337 83 11006ft 331kts
19-Apr-18 18:42 35.845954 -114.868380 87 14480ft 349kts
19-Apr-18 18:43 35.860192 -114.733035 83 18068ft 446kts
19-Apr-18 18:44 35.876428 -114.579318 84 21584ft 465kts
19-Apr-18 18:45 35.890552 -114.418617 85 22866ft 478kts
19-Apr-18 18:46 35.904676 -114.255176 85 25179ft 502kts
19-Apr-18 18:47 35.919066 -114.093645 85 28017ft 514kts
19-Apr-18 18:48 35.934920 -113.914880 90 31005ft 537kts
19-Apr-18 18:49 35.898090 -113.736901 110 34051ft 554kts
19-Apr-18 18:50 35.845758 -113.559182 115 36855ft 574kts
19-Apr-18 18:51 35.790801 -113.377431 113 36913ft 579kts
19-Apr-18 18:52 35.736896 -113.195747 114 36124ft 566kts
19-Apr-18 18:53 35.684219 -113.017020 114 34838ft 560kts
19-Apr-18 18:54 35.634601 -112.840002 118 32466ft 539kts
19-Apr-18 18:55 35.583829 -112.674536 118 29518ft 513kts
19-Apr-18 18:56 35.534883 -112.517165 125 28883ft 472kts
19-Apr-18 18:57 35.435958 -112.447553 170 28910ft 418kts
19-Apr-18 18:58 35.325457 -112.421145 178 28913ft 410kts
19-Apr-18 18:59 35.214581 -112.400223 178 28912ft 410kts
19-Apr-18 19:00 35.105799 -112.378753 176 28903ft 381kts
19-Apr-18 19:01 35.002383 -112.355189 176 28913ft 381kts
19-Apr-18 19:02 34.899995 -112.328292 177 28897ft 384kts
19-Apr-18 19:03 34.797208 -112.305369 181 28250ft 377kts
19-Apr-18 19:04 34.700571 -112.286537 180 25434ft 336kts
19-Apr-18 19:05 34.611194 -112.268596 180 24791ft 334kts
19-Apr-18 19:06 34.519972 -112.250601 180 23193ft 336kts
19-Apr-18 19:07 34.429395 -112.232885 178 22688ft 339kts
19-Apr-18 19:08 34.339697 -112.212737 178 20180ft 325kts
19-Apr-18 19:09 34.253541 -112.195395 178 17579ft 314kts
19-Apr-18 19:10 34.168929 -112.179928 178 16898ft 312kts
19-Apr-18 19:11 34.084601 -112.158113 165 16854ft 321kts
19-Apr-18 19:12 34.005366 -112.124215 168 16855ft 291kts
19-Apr-18 19:13 33.928748 -112.091812 168 13908ft 292kts
19-Apr-18 19:14 33.853095 -112.061683 167 10901ft 280kts
19-Apr-18 19:15 33.780598 -112.032965 167 8913ft 270kts
19-Apr-18 19:16 33.712020 -112.005947 167 8996ft 271kts
19-Apr-18 19:17 33.646033 -111.978894 166 9008ft 215kts
19-Apr-18 19:18 33.590192 -111.954705 166 9018ft 216kts
19-Apr-18 19:19 33.535152 -111.930722 166 9020ft 214kts
19-Apr-18 19:20 33.489003 -111.883140 136 9026ft 230kts
19-Apr-18 19:21 33.500611 -111.836244 4 8649ft 199kts
19-Apr-18 19:22 33.538236 -111.865874 274 7403ft 166kts
19-Apr-18 19:23 33.537254 -111.916797 232 8961ft 174kts
19-Apr-18 19:24 33.511243 -111.886160 60 6682ft 229kts
19-Apr-18 19:25 33.561515 -111.843288 37 6021ft 225kts
19-Apr-18 19:26 33.545648 -111.792633 160 5018ft 179kts
19-Apr-18 19:27 33.501535 -111.765433 161 3819ft 183kts
19-Apr-18 19:28 33.455179 -111.754367 190 3913ft 171kts
19-Apr-18 19:29 33.405000 -111.756084 184 4076ft 182kts
19-Apr-18 19:30 33.357023 -111.753680 167 3409ft 174kts
19-Apr-18 19:31 33.359679 -111.698511 58 3060ft 199kts
19-Apr-18 19:32 33.389332 -111.641518 57 3844ft 207kts
19-Apr-18 19:33 33.437662 -111.611953 343 4005ft 198kts
19-Apr-18 19:34 33.445172 -111.658248 255 4028ft 158kts
19-Apr-18 19:35 33.440845 -111.712255 264 4024ft 169kts
19-Apr-18 19:36 33.440338 -111.767044 265 4028ft 164kts
19-Apr-18 19:37 33.440503 -111.821449 266 4028ft 162kts
19-Apr-18 19:38 33.440895 -111.876427 264 3322ft 163kts
19-Apr-18 19:39 33.441605 -111.929801 268 2241ft 159kts
19-Apr-18 19:40 33.440783 -111.980965 266 1398ft 145kts
19-Apr-18 19:41 33.440738 -112.011926 271 1145ft 20kts
19-Apr-18 19:42 33.440344 -112.013711 219 1145ft 0kts
19-Apr-18 19:43 33.439823 -112.013316 107 1145ft 4kts
19-Apr-18 19:44 33.439842 -112.013005 58 1145ft 6kts
19-Apr-18 19:45 33.439750 -112.007194 90 1145ft 22kts
19-Apr-18 19:46 33.438386 -112.004525 199 1145ft 8kts
19-Apr-18 19:47 33.434860 -112.004696 181 1145ft 16kts
19-Apr-18 19:48 33.432067 -112.005803 231 1145ft 0kts
19-Apr-18 19:49 33.430879 -112.006252 179 1145ft 18kts
19-Apr-18 19:50 33.429307 -112.010827 183 1145ft 15kts
19-Apr-18 19:51 33.427579 -112.014228 271 1145ft 27kts
19-Apr-18 19:52 33.427736 -112.020134 269 1145ft 15kts
19-Apr-18 19:53 33.426979 -112.022290 227 1145ft 0kts

Navigation Log

Ident Type
Flight plan parsing failed, navigation log unavailable